sensor_id;sensor_type;location;lat;lon;timestamp;P1;durP1;ratioP1;P2;durP2;ratioP2
23129;SDS011;11734;51.046;13.778;2022-12-11T00:00:14;29.67;;;17.90;;
23129;SDS011;11734;51.046;13.778;2022-12-11T00:02:41;29.37;;;17.57;;
23129;SDS011;11734;51.046;13.778;2022-12-11T00:05:09;27.20;;;16.47;;
23129;SDS011;11734;51.046;13.778;2022-12-11T00:07:36;30.77;;;17.63;;
23129;SDS011;11734;51.046;13.778;2022-12-11T00:10:04;27.23;;;16.97;;
23129;SDS011;11734;51.046;13.778;2022-12-11T00:12:31;30.73;;;18.30;;
23129;SDS011;11734;51.046;13.778;2022-12-11T00:14:58;29.77;;;18.03;;
23129;SDS011;11734;51.046;13.778;2022-12-11T00:17:26;34.47;;;18.73;;
23129;SDS011;11734;51.046;13.778;2022-12-11T00:19:53;30.00;;;17.87;;
23129;SDS011;11734;51.046;13.778;2022-12-11T00:22:20;30.50;;;18.87;;
23129;SDS011;11734;51.046;13.778;2022-12-11T00:24:48;30.40;;;18.00;;
23129;SDS011;11734;51.046;13.778;2022-12-11T00:27:15;30.00;;;18.03;;
23129;SDS011;11734;51.046;13.778;2022-12-11T00:29:43;29.07;;;17.70;;
23129;SDS011;11734;51.046;13.778;2022-12-11T00:32:10;31.13;;;18.43;;
23129;SDS011;11734;51.046;13.778;2022-12-11T00:34:37;31.93;;;18.67;;
23129;SDS011;11734;51.046;13.778;2022-12-11T00:37:05;30.50;;;18.57;;
23129;SDS011;11734;51.046;13.778;2022-12-11T00:39:32;26.50;;;16.63;;
23129;SDS011;11734;51.046;13.778;2022-12-11T00:41:59;32.33;;;18.40;;
23129;SDS011;11734;51.046;13.778;2022-12-11T00:44:26;29.03;;;17.37;;
23129;SDS011;11734;51.046;13.778;2022-12-11T00:46:54;29.50;;;17.13;;
23129;SDS011;11734;51.046;13.778;2022-12-11T00:49:21;31.97;;;18.40;;
23129;SDS011;11734;51.046;13.778;2022-12-11T00:51:48;31.53;;;18.83;;
23129;SDS011;11734;51.046;13.778;2022-12-11T00:54:15;34.17;;;19.13;;
23129;SDS011;11734;51.046;13.778;2022-12-11T00:56:42;30.93;;;18.40;;
23129;SDS011;11734;51.046;13.778;2022-12-11T00:59:10;30.47;;;18.53;;
23129;SDS011;11734;51.046;13.778;2022-12-11T01:01:37;29.97;;;17.20;;
23129;SDS011;11734;51.046;13.778;2022-12-11T01:04:04;29.87;;;17.50;;
23129;SDS011;11734;51.046;13.778;2022-12-11T01:06:31;32.87;;;19.57;;
23129;SDS011;11734;51.046;13.778;2022-12-11T01:08:59;30.13;;;18.83;;
23129;SDS011;11734;51.046;13.778;2022-12-11T01:11:44;32.13;;;18.00;;
23129;SDS011;11734;51.046;13.778;2022-12-11T01:14:12;32.37;;;17.77;;
23129;SDS011;11734;51.046;13.778;2022-12-11T01:16:39;29.63;;;17.90;;
23129;SDS011;11734;51.046;13.778;2022-12-11T01:19:06;28.50;;;17.03;;
23129;SDS011;11734;51.046;13.778;2022-12-11T01:21:34;30.43;;;17.90;;
23129;SDS011;11734;51.046;13.778;2022-12-11T01:24:01;29.60;;;17.77;;
23129;SDS011;11734;51.046;13.778;2022-12-11T01:26:28;31.07;;;18.37;;
23129;SDS011;11734;51.046;13.778;2022-12-11T01:28:55;28.77;;;17.07;;
23129;SDS011;11734;51.046;13.778;2022-12-11T01:31:23;27.23;;;17.30;;
23129;SDS011;11734;51.046;13.778;2022-12-11T01:33:52;32.43;;;17.60;;
23129;SDS011;11734;51.046;13.778;2022-12-11T01:36:20;28.77;;;17.90;;
23129;SDS011;11734;51.046;13.778;2022-12-11T01:38:48;28.60;;;17.17;;
23129;SDS011;11734;51.046;13.778;2022-12-11T01:41:16;29.03;;;17.40;;
23129;SDS011;11734;51.046;13.778;2022-12-11T01:44:03;28.00;;;17.63;;
23129;SDS011;11734;51.046;13.778;2022-12-11T01:46:31;27.60;;;16.43;;
23129;SDS011;11734;51.046;13.778;2022-12-11T01:49:00;28.83;;;17.63;;
23129;SDS011;11734;51.046;13.778;2022-12-11T01:51:28;27.90;;;17.03;;
23129;SDS011;11734;51.046;13.778;2022-12-11T01:54:01;30.27;;;18.13;;
23129;SDS011;11734;51.046;13.778;2022-12-11T01:56:30;28.00;;;16.90;;
23129;SDS011;11734;51.046;13.778;2022-12-11T01:58:59;27.73;;;16.57;;
23129;SDS011;11734;51.046;13.778;2022-12-11T02:01:30;26.87;;;16.97;;
23129;SDS011;11734;51.046;13.778;2022-12-11T02:03:58;28.00;;;16.77;;
23129;SDS011;11734;51.046;13.778;2022-12-11T02:06:33;28.10;;;16.53;;
23129;SDS011;11734;51.046;13.778;2022-12-11T02:09:02;28.83;;;16.93;;
23129;SDS011;11734;51.046;13.778;2022-12-11T02:11:34;31.43;;;16.93;;
23129;SDS011;11734;51.046;13.778;2022-12-11T02:14:04;27.50;;;16.30;;
23129;SDS011;11734;51.046;13.778;2022-12-11T02:16:36;27.37;;;16.40;;
23129;SDS011;11734;51.046;13.778;2022-12-11T02:21:41;27.47;;;16.50;;
23129;SDS011;11734;51.046;13.778;2022-12-11T02:29:12;27.13;;;16.90;;
23129;SDS011;11734;51.046;13.778;2022-12-11T02:31:41;25.17;;;16.07;;
23129;SDS011;11734;51.046;13.778;2022-12-11T02:34:17;26.90;;;15.53;;
23129;SDS011;11734;51.046;13.778;2022-12-11T02:36:46;25.47;;;15.67;;
23129;SDS011;11734;51.046;13.778;2022-12-11T02:39:15;27.70;;;16.87;;
23129;SDS011;11734;51.046;13.778;2022-12-11T02:41:45;27.33;;;16.13;;
23129;SDS011;11734;51.046;13.778;2022-12-11T02:44:14;26.87;;;15.97;;
23129;SDS011;11734;51.046;13.778;2022-12-11T02:46:42;25.90;;;15.47;;
23129;SDS011;11734;51.046;13.778;2022-12-11T02:49:10;25.90;;;15.57;;
23129;SDS011;11734;51.046;13.778;2022-12-11T02:51:39;25.60;;;15.53;;
23129;SDS011;11734;51.046;13.778;2022-12-11T02:54:08;23.90;;;14.53;;
23129;SDS011;11734;51.046;13.778;2022-12-11T02:56:40;24.10;;;15.07;;
23129;SDS011;11734;51.046;13.778;2022-12-11T02:59:10;28.73;;;15.80;;
23129;SDS011;11734;51.046;13.778;2022-12-11T03:01:39;25.73;;;15.63;;
23129;SDS011;11734;51.046;13.778;2022-12-11T03:04:06;27.63;;;15.53;;
23129;SDS011;11734;51.046;13.778;2022-12-11T03:06:38;23.43;;;14.73;;
23129;SDS011;11734;51.046;13.778;2022-12-11T03:09:08;26.87;;;14.60;;
23129;SDS011;11734;51.046;13.778;2022-12-11T03:11:35;24.63;;;14.47;;
23129;SDS011;11734;51.046;13.778;2022-12-11T03:14:03;24.40;;;14.07;;
23129;SDS011;11734;51.046;13.778;2022-12-11T03:19:01;22.67;;;13.60;;
23129;SDS011;11734;51.046;13.778;2022-12-11T03:21:33;23.87;;;14.80;;
23129;SDS011;11734;51.046;13.778;2022-12-11T03:24:04;22.47;;;13.53;;
23129;SDS011;11734;51.046;13.778;2022-12-11T03:26:38;23.50;;;13.60;;
23129;SDS011;11734;51.046;13.778;2022-12-11T03:29:30;24.27;;;14.07;;
23129;SDS011;11734;51.046;13.778;2022-12-11T03:31:59;22.03;;;13.30;;
23129;SDS011;11734;51.046;13.778;2022-12-11T03:34:50;23.00;;;14.00;;
23129;SDS011;11734;51.046;13.778;2022-12-11T03:37:23;20.07;;;13.00;;
23129;SDS011;11734;51.046;13.778;2022-12-11T03:39:57;23.07;;;13.93;;
23129;SDS011;11734;51.046;13.778;2022-12-11T03:42:25;22.00;;;14.10;;
23129;SDS011;11734;51.046;13.778;2022-12-11T03:44:53;22.13;;;13.47;;
23129;SDS011;11734;51.046;13.778;2022-12-11T03:47:21;22.90;;;13.73;;
23129;SDS011;11734;51.046;13.778;2022-12-11T03:49:49;24.10;;;14.47;;
23129;SDS011;11734;51.046;13.778;2022-12-11T03:52:18;25.57;;;15.37;;
23129;SDS011;11734;51.046;13.778;2022-12-11T03:54:46;25.40;;;14.37;;
23129;SDS011;11734;51.046;13.778;2022-12-11T03:57:15;22.97;;;13.63;;
23129;SDS011;11734;51.046;13.778;2022-12-11T03:59:44;21.33;;;13.40;;
23129;SDS011;11734;51.046;13.778;2022-12-11T04:02:11;21.80;;;14.27;;
23129;SDS011;11734;51.046;13.778;2022-12-11T04:04:39;23.10;;;13.77;;
23129;SDS011;11734;51.046;13.778;2022-12-11T04:07:07;24.57;;;14.27;;
23129;SDS011;11734;51.046;13.778;2022-12-11T04:09:34;24.07;;;14.60;;
23129;SDS011;11734;51.046;13.778;2022-12-11T04:12:01;23.60;;;14.57;;
23129;SDS011;11734;51.046;13.778;2022-12-11T04:14:28;22.17;;;13.27;;
23129;SDS011;11734;51.046;13.778;2022-12-11T04:17:15;24.13;;;13.83;;
23129;SDS011;11734;51.046;13.778;2022-12-11T04:20:03;25.90;;;15.47;;
23129;SDS011;11734;51.046;13.778;2022-12-11T04:22:49;23.73;;;14.93;;
23129;SDS011;11734;51.046;13.778;2022-12-11T04:25:35;24.30;;;15.23;;
23129;SDS011;11734;51.046;13.778;2022-12-11T04:28:03;25.43;;;15.37;;
23129;SDS011;11734;51.046;13.778;2022-12-11T04:30:30;23.70;;;14.67;;
23129;SDS011;11734;51.046;13.778;2022-12-11T04:33:00;22.83;;;15.00;;
23129;SDS011;11734;51.046;13.778;2022-12-11T04:35:27;26.30;;;14.73;;
23129;SDS011;11734;51.046;13.778;2022-12-11T04:37:55;25.73;;;14.93;;
23129;SDS011;11734;51.046;13.778;2022-12-11T04:40:22;22.07;;;14.27;;
23129;SDS011;11734;51.046;13.778;2022-12-11T04:42:49;24.63;;;14.93;;
23129;SDS011;11734;51.046;13.778;2022-12-11T04:45:17;21.53;;;13.63;;
23129;SDS011;11734;51.046;13.778;2022-12-11T04:48:03;24.23;;;13.67;;
23129;SDS011;11734;51.046;13.778;2022-12-11T04:50:30;22.57;;;13.73;;
23129;SDS011;11734;51.046;13.778;2022-12-11T04:52:57;23.00;;;14.07;;
23129;SDS011;11734;51.046;13.778;2022-12-11T04:55:24;20.17;;;12.73;;
23129;SDS011;11734;51.046;13.778;2022-12-11T04:57:52;16.00;;;11.17;;
23129;SDS011;11734;51.046;13.778;2022-12-11T05:00:19;19.93;;;10.67;;
23129;SDS011;11734;51.046;13.778;2022-12-11T05:02:46;15.97;;;10.50;;
23129;SDS011;11734;51.046;13.778;2022-12-11T05:05:13;16.83;;;10.37;;
23129;SDS011;11734;51.046;13.778;2022-12-11T05:07:40;16.83;;;10.80;;
23129;SDS011;11734;51.046;13.778;2022-12-11T05:10:08;19.73;;;11.00;;
23129;SDS011;11734;51.046;13.778;2022-12-11T05:12:36;17.10;;;11.00;;
23129;SDS011;11734;51.046;13.778;2022-12-11T05:15:04;19.07;;;11.27;;
23129;SDS011;11734;51.046;13.778;2022-12-11T05:17:32;17.20;;;10.67;;
23129;SDS011;11734;51.046;13.778;2022-12-11T05:19:59;18.07;;;11.57;;
23129;SDS011;11734;51.046;13.778;2022-12-11T05:22:28;22.80;;;12.77;;
23129;SDS011;11734;51.046;13.778;2022-12-11T05:24:57;19.83;;;12.67;;
23129;SDS011;11734;51.046;13.778;2022-12-11T05:27:24;23.43;;;13.70;;
23129;SDS011;11734;51.046;13.778;2022-12-11T05:29:51;26.07;;;14.67;;
23129;SDS011;11734;51.046;13.778;2022-12-11T05:32:24;29.47;;;15.43;;
23129;SDS011;11734;51.046;13.778;2022-12-11T05:34:51;25.73;;;14.80;;
23129;SDS011;11734;51.046;13.778;2022-12-11T05:37:19;26.50;;;14.50;;
23129;SDS011;11734;51.046;13.778;2022-12-11T05:39:46;27.47;;;15.27;;
23129;SDS011;11734;51.046;13.778;2022-12-11T05:42:13;29.83;;;16.70;;
23129;SDS011;11734;51.046;13.778;2022-12-11T05:44:40;26.53;;;14.43;;
23129;SDS011;11734;51.046;13.778;2022-12-11T05:47:07;26.13;;;14.93;;
23129;SDS011;11734;51.046;13.778;2022-12-11T05:49:34;25.43;;;14.83;;
23129;SDS011;11734;51.046;13.778;2022-12-11T05:52:02;28.03;;;15.83;;
23129;SDS011;11734;51.046;13.778;2022-12-11T05:54:29;26.93;;;14.20;;
23129;SDS011;11734;51.046;13.778;2022-12-11T05:56:56;26.33;;;15.67;;
23129;SDS011;11734;51.046;13.778;2022-12-11T05:59:23;24.47;;;13.80;;
23129;SDS011;11734;51.046;13.778;2022-12-11T06:01:50;22.83;;;13.40;;
23129;SDS011;11734;51.046;13.778;2022-12-11T06:04:18;23.37;;;13.73;;
23129;SDS011;11734;51.046;13.778;2022-12-11T06:06:45;25.10;;;14.00;;
23129;SDS011;11734;51.046;13.778;2022-12-11T06:09:12;25.63;;;13.43;;
23129;SDS011;11734;51.046;13.778;2022-12-11T06:11:40;19.40;;;11.50;;
23129;SDS011;11734;51.046;13.778;2022-12-11T06:14:08;22.47;;;12.57;;
23129;SDS011;11734;51.046;13.778;2022-12-11T06:16:35;21.37;;;12.57;;
23129;SDS011;11734;51.046;13.778;2022-12-11T06:19:03;21.33;;;13.07;;
23129;SDS011;11734;51.046;13.778;2022-12-11T06:21:31;22.03;;;12.87;;
23129;SDS011;11734;51.046;13.778;2022-12-11T06:23:59;20.43;;;11.97;;
23129;SDS011;11734;51.046;13.778;2022-12-11T06:26:27;21.53;;;13.43;;
23129;SDS011;11734;51.046;13.778;2022-12-11T06:28:54;18.73;;;11.97;;
23129;SDS011;11734;51.046;13.778;2022-12-11T06:31:22;18.93;;;11.30;;
23129;SDS011;11734;51.046;13.778;2022-12-11T06:33:49;17.57;;;10.77;;
23129;SDS011;11734;51.046;13.778;2022-12-11T06:36:19;20.13;;;11.67;;
23129;SDS011;11734;51.046;13.778;2022-12-11T06:38:46;18.07;;;11.53;;
23129;SDS011;11734;51.046;13.778;2022-12-11T06:41:14;21.10;;;11.50;;
23129;SDS011;11734;51.046;13.778;2022-12-11T06:43:41;20.07;;;12.03;;
23129;SDS011;11734;51.046;13.778;2022-12-11T06:46:09;19.57;;;10.97;;
23129;SDS011;11734;51.046;13.778;2022-12-11T06:48:37;20.00;;;11.33;;
23129;SDS011;11734;51.046;13.778;2022-12-11T06:51:05;19.10;;;11.27;;
23129;SDS011;11734;51.046;13.778;2022-12-11T06:53:33;18.33;;;11.47;;
23129;SDS011;11734;51.046;13.778;2022-12-11T06:56:08;19.27;;;11.83;;
23129;SDS011;11734;51.046;13.778;2022-12-11T06:58:36;20.23;;;11.30;;
23129;SDS011;11734;51.046;13.778;2022-12-11T07:01:03;18.77;;;11.03;;
23129;SDS011;11734;51.046;13.778;2022-12-11T07:03:31;18.30;;;11.27;;
23129;SDS011;11734;51.046;13.778;2022-12-11T07:06:01;18.40;;;10.80;;
23129;SDS011;11734;51.046;13.778;2022-12-11T07:08:46;20.20;;;11.10;;
23129;SDS011;11734;51.046;13.778;2022-12-11T07:11:14;18.67;;;11.43;;
23129;SDS011;11734;51.046;13.778;2022-12-11T07:13:42;18.60;;;11.13;;
23129;SDS011;11734;51.046;13.778;2022-12-11T07:16:12;18.13;;;10.97;;
23129;SDS011;11734;51.046;13.778;2022-12-11T07:18:41;16.10;;;10.67;;
23129;SDS011;11734;51.046;13.778;2022-12-11T07:21:09;16.50;;;10.47;;
23129;SDS011;11734;51.046;13.778;2022-12-11T07:23:37;19.23;;;10.80;;
23129;SDS011;11734;51.046;13.778;2022-12-11T07:26:06;17.87;;;10.60;;
23129;SDS011;11734;51.046;13.778;2022-12-11T07:28:33;17.63;;;10.37;;
23129;SDS011;11734;51.046;13.778;2022-12-11T07:31:04;18.37;;;10.43;;
23129;SDS011;11734;51.046;13.778;2022-12-11T07:33:32;17.87;;;10.17;;
23129;SDS011;11734;51.046;13.778;2022-12-11T07:36:00;19.87;;;10.80;;
23129;SDS011;11734;51.046;13.778;2022-12-11T07:38:28;17.60;;;10.07;;
23129;SDS011;11734;51.046;13.778;2022-12-11T07:40:55;16.63;;;10.27;;
23129;SDS011;11734;51.046;13.778;2022-12-11T07:43:26;16.43;;;10.27;;
23129;SDS011;11734;51.046;13.778;2022-12-11T07:45:53;16.97;;;10.47;;
23129;SDS011;11734;51.046;13.778;2022-12-11T07:48:20;17.93;;;10.67;;
23129;SDS011;11734;51.046;13.778;2022-12-11T07:50:47;16.37;;;10.03;;
23129;SDS011;11734;51.046;13.778;2022-12-11T07:53:15;16.53;;;10.47;;
23129;SDS011;11734;51.046;13.778;2022-12-11T07:55:42;18.60;;;11.03;;
23129;SDS011;11734;51.046;13.778;2022-12-11T07:58:09;18.83;;;10.93;;
23129;SDS011;11734;51.046;13.778;2022-12-11T08:00:36;16.73;;;10.60;;
23129;SDS011;11734;51.046;13.778;2022-12-11T08:03:03;18.60;;;10.43;;
23129;SDS011;11734;51.046;13.778;2022-12-11T08:05:31;18.53;;;10.53;;
23129;SDS011;11734;51.046;13.778;2022-12-11T08:07:58;20.90;;;11.30;;
23129;SDS011;11734;51.046;13.778;2022-12-11T08:10:25;17.10;;;10.07;;
23129;SDS011;11734;51.046;13.778;2022-12-11T08:12:52;17.10;;;10.40;;
23129;SDS011;11734;51.046;13.778;2022-12-11T08:15:20;18.10;;;10.43;;
23129;SDS011;11734;51.046;13.778;2022-12-11T08:17:47;16.50;;;9.87;;
23129;SDS011;11734;51.046;13.778;2022-12-11T08:20:14;18.30;;;10.43;;
23129;SDS011;11734;51.046;13.778;2022-12-11T08:22:42;18.10;;;10.87;;
23129;SDS011;11734;51.046;13.778;2022-12-11T08:25:09;18.70;;;10.47;;
23129;SDS011;11734;51.046;13.778;2022-12-11T08:27:36;16.43;;;10.23;;
23129;SDS011;11734;51.046;13.778;2022-12-11T08:30:04;16.93;;;10.27;;
23129;SDS011;11734;51.046;13.778;2022-12-11T08:32:31;17.17;;;10.13;;
23129;SDS011;11734;51.046;13.778;2022-12-11T08:34:58;19.17;;;10.70;;
23129;SDS011;11734;51.046;13.778;2022-12-11T08:37:25;17.07;;;10.30;;
23129;SDS011;11734;51.046;13.778;2022-12-11T08:39:53;16.70;;;10.20;;
23129;SDS011;11734;51.046;13.778;2022-12-11T08:42:20;16.73;;;10.20;;
23129;SDS011;11734;51.046;13.778;2022-12-11T08:44:47;16.60;;;10.10;;
23129;SDS011;11734;51.046;13.778;2022-12-11T08:47:15;15.20;;;9.83;;
23129;SDS011;11734;51.046;13.778;2022-12-11T08:49:42;14.03;;;9.60;;
23129;SDS011;11734;51.046;13.778;2022-12-11T08:52:10;17.00;;;9.50;;
23129;SDS011;11734;51.046;13.778;2022-12-11T08:54:37;15.53;;;9.87;;
23129;SDS011;11734;51.046;13.778;2022-12-11T08:57:04;16.57;;;9.60;;
23129;SDS011;11734;51.046;13.778;2022-12-11T08:59:32;16.13;;;10.43;;
23129;SDS011;11734;51.046;13.778;2022-12-11T09:01:59;16.33;;;11.00;;
23129;SDS011;11734;51.046;13.778;2022-12-11T09:04:26;15.83;;;9.90;;
23129;SDS011;11734;51.046;13.778;2022-12-11T09:06:53;18.03;;;10.33;;
23129;SDS011;11734;51.046;13.778;2022-12-11T09:09:20;18.40;;;10.80;;
23129;SDS011;11734;51.046;13.778;2022-12-11T09:11:48;14.83;;;9.87;;
23129;SDS011;11734;51.046;13.778;2022-12-11T09:14:15;18.30;;;11.70;;
23129;SDS011;11734;51.046;13.778;2022-12-11T09:16:42;16.60;;;10.60;;
23129;SDS011;11734;51.046;13.778;2022-12-11T09:19:11;15.50;;;10.03;;
23129;SDS011;11734;51.046;13.778;2022-12-11T09:21:42;18.13;;;10.53;;
23129;SDS011;11734;51.046;13.778;2022-12-11T09:24:10;15.40;;;9.47;;
23129;SDS011;11734;51.046;13.778;2022-12-11T09:26:38;17.10;;;11.13;;
23129;SDS011;11734;51.046;13.778;2022-12-11T09:29:06;16.30;;;9.77;;
23129;SDS011;11734;51.046;13.778;2022-12-11T09:31:34;16.43;;;9.70;;
23129;SDS011;11734;51.046;13.778;2022-12-11T09:34:06;14.33;;;9.10;;
23129;SDS011;11734;51.046;13.778;2022-12-11T09:36:33;16.30;;;10.03;;
23129;SDS011;11734;51.046;13.778;2022-12-11T09:39:02;14.17;;;8.93;;
23129;SDS011;11734;51.046;13.778;2022-12-11T09:46:26;17.80;;;10.20;;
23129;SDS011;11734;51.046;13.778;2022-12-11T09:48:59;14.53;;;9.13;;
23129;SDS011;11734;51.046;13.778;2022-12-11T09:51:35;14.93;;;9.10;;
23129;SDS011;11734;51.046;13.778;2022-12-11T09:54:05;14.97;;;9.47;;
23129;SDS011;11734;51.046;13.778;2022-12-11T09:59:01;16.13;;;9.77;;
23129;SDS011;11734;51.046;13.778;2022-12-11T10:07:15;17.27;;;10.30;;
23129;SDS011;11734;51.046;13.778;2022-12-11T10:17:20;18.47;;;10.57;;
23129;SDS011;11734;51.046;13.778;2022-12-11T10:19:48;15.27;;;10.17;;
23129;SDS011;11734;51.046;13.778;2022-12-11T10:22:21;16.67;;;10.63;;
23129;SDS011;11734;51.046;13.778;2022-12-11T10:24:52;14.93;;;10.20;;
23129;SDS011;11734;51.046;13.778;2022-12-11T10:27:38;15.20;;;9.93;;
23129;SDS011;11734;51.046;13.778;2022-12-11T10:35:07;16.37;;;10.53;;
23129;SDS011;11734;51.046;13.778;2022-12-11T10:37:36;16.07;;;9.77;;
23129;SDS011;11734;51.046;13.778;2022-12-11T10:40:04;16.93;;;9.70;;
23129;SDS011;11734;51.046;13.778;2022-12-11T10:42:32;15.27;;;9.70;;
23129;SDS011;11734;51.046;13.778;2022-12-11T10:45:00;14.13;;;9.17;;
23129;SDS011;11734;51.046;13.778;2022-12-11T10:47:28;13.27;;;9.30;;
23129;SDS011;11734;51.046;13.778;2022-12-11T10:49:56;12.40;;;9.17;;
23129;SDS011;11734;51.046;13.778;2022-12-11T10:55:02;13.50;;;8.43;;
23129;SDS011;11734;51.046;13.778;2022-12-11T10:57:31;13.10;;;8.47;;
23129;SDS011;11734;51.046;13.778;2022-12-11T10:59:59;15.97;;;10.30;;
23129;SDS011;11734;51.046;13.778;2022-12-11T11:02:46;14.07;;;8.80;;
23129;SDS011;11734;51.046;13.778;2022-12-11T11:05:15;14.57;;;9.73;;
23129;SDS011;11734;51.046;13.778;2022-12-11T11:07:43;14.83;;;9.77;;
23129;SDS011;11734;51.046;13.778;2022-12-11T11:12:48;15.40;;;9.80;;
23129;SDS011;11734;51.046;13.778;2022-12-11T11:15:21;13.63;;;8.70;;
23129;SDS011;11734;51.046;13.778;2022-12-11T11:17:52;13.33;;;8.73;;
23129;SDS011;11734;51.046;13.778;2022-12-11T11:20:30;13.23;;;8.47;;
23129;SDS011;11734;51.046;13.778;2022-12-11T11:23:00;13.97;;;8.40;;
23129;SDS011;11734;51.046;13.778;2022-12-11T11:25:29;13.23;;;8.93;;
23129;SDS011;11734;51.046;13.778;2022-12-11T11:27:57;12.43;;;8.50;;
23129;SDS011;11734;51.046;13.778;2022-12-11T11:30:26;12.03;;;8.30;;
23129;SDS011;11734;51.046;13.778;2022-12-11T11:32:56;13.60;;;8.73;;
23129;SDS011;11734;51.046;13.778;2022-12-11T11:35:26;14.63;;;9.37;;
23129;SDS011;11734;51.046;13.778;2022-12-11T11:37:58;15.73;;;9.77;;
23129;SDS011;11734;51.046;13.778;2022-12-11T11:40:29;14.47;;;9.33;;
23129;SDS011;11734;51.046;13.778;2022-12-11T11:43:05;15.80;;;9.77;;
23129;SDS011;11734;51.046;13.778;2022-12-11T11:45:38;15.07;;;9.67;;
23129;SDS011;11734;51.046;13.778;2022-12-11T11:50:52;13.43;;;8.63;;
23129;SDS011;11734;51.046;13.778;2022-12-11T11:53:31;15.73;;;9.80;;
23129;SDS011;11734;51.046;13.778;2022-12-11T12:01:21;14.80;;;9.73;;
23129;SDS011;11734;51.046;13.778;2022-12-11T12:03:49;15.40;;;9.83;;
23129;SDS011;11734;51.046;13.778;2022-12-11T12:20:12;17.07;;;10.97;;
23129;SDS011;11734;51.046;13.778;2022-12-11T12:22:57;17.20;;;10.97;;
23129;SDS011;11734;51.046;13.778;2022-12-11T12:25:47;16.17;;;10.20;;
23129;SDS011;11734;51.046;13.778;2022-12-11T12:28:21;17.67;;;10.57;;
23129;SDS011;11734;51.046;13.778;2022-12-11T12:33:34;15.13;;;10.37;;
23129;SDS011;11734;51.046;13.778;2022-12-11T12:38:46;16.37;;;10.03;;
23129;SDS011;11734;51.046;13.778;2022-12-11T12:41:21;17.87;;;11.30;;
23129;SDS011;11734;51.046;13.778;2022-12-11T12:46:36;15.53;;;10.40;;
23129;SDS011;11734;51.046;13.778;2022-12-11T12:49:09;14.77;;;9.87;;
23129;SDS011;11734;51.046;13.778;2022-12-11T12:51:39;14.47;;;10.17;;
23129;SDS011;11734;51.046;13.778;2022-12-11T12:54:06;15.03;;;9.47;;
23129;SDS011;11734;51.046;13.778;2022-12-11T12:56:37;15.70;;;10.00;;
23129;SDS011;11734;51.046;13.778;2022-12-11T12:59:17;18.07;;;10.80;;
23129;SDS011;11734;51.046;13.778;2022-12-11T13:01:49;14.80;;;9.73;;
23129;SDS011;11734;51.046;13.778;2022-12-11T13:07:25;16.63;;;10.83;;
23129;SDS011;11734;51.046;13.778;2022-12-11T13:09:58;14.80;;;10.13;;
23129;SDS011;11734;51.046;13.778;2022-12-11T13:12:42;15.87;;;10.10;;
23129;SDS011;11734;51.046;13.778;2022-12-11T13:15:23;15.57;;;9.47;;
23129;SDS011;11734;51.046;13.778;2022-12-11T13:17:50;14.27;;;9.73;;
23129;SDS011;11734;51.046;13.778;2022-12-11T13:20:19;14.90;;;9.97;;
23129;SDS011;11734;51.046;13.778;2022-12-11T13:22:52;13.13;;;9.47;;
23129;SDS011;11734;51.046;13.778;2022-12-11T13:25:28;16.23;;;10.10;;
23129;SDS011;11734;51.046;13.778;2022-12-11T13:28:06;15.87;;;10.70;;
23129;SDS011;11734;51.046;13.778;2022-12-11T13:30:34;17.30;;;10.77;;
23129;SDS011;11734;51.046;13.778;2022-12-11T13:33:13;16.33;;;10.50;;
23129;SDS011;11734;51.046;13.778;2022-12-11T13:35:41;15.20;;;10.20;;
23129;SDS011;11734;51.046;13.778;2022-12-11T13:38:15;16.47;;;10.87;;
23129;SDS011;11734;51.046;13.778;2022-12-11T13:40:45;17.20;;;10.90;;
23129;SDS011;11734;51.046;13.778;2022-12-11T13:43:20;15.97;;;10.77;;
23129;SDS011;11734;51.046;13.778;2022-12-11T13:45:49;16.80;;;11.13;;
23129;SDS011;11734;51.046;13.778;2022-12-11T13:48:21;17.83;;;10.43;;
23129;SDS011;11734;51.046;13.778;2022-12-11T13:50:50;15.13;;;10.33;;
23129;SDS011;11734;51.046;13.778;2022-12-11T13:53:18;14.83;;;9.77;;
23129;SDS011;11734;51.046;13.778;2022-12-11T13:55:54;14.03;;;9.10;;
23129;SDS011;11734;51.046;13.778;2022-12-11T13:58:23;11.97;;;8.30;;
23129;SDS011;11734;51.046;13.778;2022-12-11T14:01:02;14.47;;;9.17;;
23129;SDS011;11734;51.046;13.778;2022-12-11T14:03:30;12.80;;;8.60;;
23129;SDS011;11734;51.046;13.778;2022-12-11T14:05:58;16.27;;;9.90;;
23129;SDS011;11734;51.046;13.778;2022-12-11T14:08:27;14.67;;;10.23;;
23129;SDS011;11734;51.046;13.778;2022-12-11T14:10:56;15.90;;;10.27;;
23129;SDS011;11734;51.046;13.778;2022-12-11T14:13:25;16.57;;;10.53;;
23129;SDS011;11734;51.046;13.778;2022-12-11T14:15:53;17.20;;;11.23;;
23129;SDS011;11734;51.046;13.778;2022-12-11T14:18:21;16.83;;;11.23;;
23129;SDS011;11734;51.046;13.778;2022-12-11T14:20:56;19.27;;;11.50;;
23129;SDS011;11734;51.046;13.778;2022-12-11T14:23:27;18.17;;;11.63;;
23129;SDS011;11734;51.046;13.778;2022-12-11T14:25:59;19.20;;;12.07;;
23129;SDS011;11734;51.046;13.778;2022-12-11T14:28:27;16.37;;;11.17;;
23129;SDS011;11734;51.046;13.778;2022-12-11T14:30:56;16.90;;;11.13;;
23129;SDS011;11734;51.046;13.778;2022-12-11T14:33:30;19.67;;;12.50;;
23129;SDS011;11734;51.046;13.778;2022-12-11T14:35:58;18.77;;;12.13;;
23129;SDS011;11734;51.046;13.778;2022-12-11T14:38:28;17.23;;;11.93;;
23129;SDS011;11734;51.046;13.778;2022-12-11T14:40:59;19.90;;;12.37;;
23129;SDS011;11734;51.046;13.778;2022-12-11T14:43:29;20.60;;;12.47;;
23129;SDS011;11734;51.046;13.778;2022-12-11T14:45:58;22.77;;;13.07;;
23129;SDS011;11734;51.046;13.778;2022-12-11T14:48:36;19.57;;;12.53;;
23129;SDS011;11734;51.046;13.778;2022-12-11T14:51:06;21.23;;;12.37;;
23129;SDS011;11734;51.046;13.778;2022-12-11T14:53:35;20.90;;;12.70;;
23129;SDS011;11734;51.046;13.778;2022-12-11T14:56:04;22.10;;;13.73;;
23129;SDS011;11734;51.046;13.778;2022-12-11T14:58:32;20.40;;;12.53;;
23129;SDS011;11734;51.046;13.778;2022-12-11T15:01:04;19.20;;;11.77;;
23129;SDS011;11734;51.046;13.778;2022-12-11T15:03:38;21.17;;;13.00;;
23129;SDS011;11734;51.046;13.778;2022-12-11T15:06:27;18.90;;;12.07;;
23129;SDS011;11734;51.046;13.778;2022-12-11T15:08:54;19.60;;;12.67;;
23129;SDS011;11734;51.046;13.778;2022-12-11T15:11:22;19.47;;;11.87;;
23129;SDS011;11734;51.046;13.778;2022-12-11T15:13:52;18.00;;;11.40;;
23129;SDS011;11734;51.046;13.778;2022-12-11T15:16:20;17.77;;;11.53;;
23129;SDS011;11734;51.046;13.778;2022-12-11T15:18:48;16.67;;;10.50;;
23129;SDS011;11734;51.046;13.778;2022-12-11T15:21:18;16.53;;;11.03;;
23129;SDS011;11734;51.046;13.778;2022-12-11T15:23:48;17.47;;;11.50;;
23129;SDS011;11734;51.046;13.778;2022-12-11T15:26:16;14.90;;;10.63;;
23129;SDS011;11734;51.046;13.778;2022-12-11T15:28:44;15.87;;;11.07;;
23129;SDS011;11734;51.046;13.778;2022-12-11T15:31:25;15.90;;;10.40;;
23129;SDS011;11734;51.046;13.778;2022-12-11T15:33:53;17.27;;;11.70;;
23129;SDS011;11734;51.046;13.778;2022-12-11T15:36:39;19.23;;;12.27;;
23129;SDS011;11734;51.046;13.778;2022-12-11T15:39:05;17.33;;;11.57;;